Time;durP1;ratioP1;P1;durP2;ratioP2;P2;SDS_P1;SDS_P2;PMS_P1;PMS_P2;Temp;Humidity;BMP_temperature;BMP_pressure;BME280_temperature;BME280_humidity;BME280_pressure;Samples;Min_cycle;Max_cycle;Signal;HPM_P1;HPM_P2
2023/09/23 00:00:14;;;;;;;2.60;1.40;;;19.90;98.10;;;;;;5092472;28;20232;-12
2023/09/23 00:02:42;;;;;;;1.60;1.50;;;19.90;98.20;;;;;;5094052;28;20166;-13
2023/09/23 00:05:11;;;;;;;1.60;1.50;;;19.90;98.20;;;;;;5073194;28;20610;-13
2023/09/23 00:07:39;;;;;;;2.83;1.50;;;19.90;98.20;;;;;;5092510;28;20193;-13
2023/09/23 00:10:05;;;;;;;1.97;1.40;;;19.80;98.10;;;;;;5075968;28;20171;-13
2023/09/23 00:12:32;;;;;;;3.53;1.63;;;19.80;98.10;;;;;;5093990;28;20163;-12
2023/09/23 00:14:58;;;;;;;1.50;1.40;;;19.80;98.10;;;;;;5093985;28;20717;-11
2023/09/23 00:17:23;;;;;;;2.60;1.57;;;19.80;98.20;;;;;;5076341;28;20220;-12
2023/09/23 00:19:49;;;;;;;1.60;1.40;;;19.80;98.10;;;;;;5075899;28;20202;-13
2023/09/23 00:22:15;;;;;;;1.57;1.47;;;19.80;98.10;;;;;;5092273;28;20174;-13
2023/09/23 00:24:41;;;;;;;2.80;1.43;;;19.80;98.10;;;;;;5092161;28;20329;-13
2023/09/23 00:27:07;;;;;;;2.17;1.63;;;19.80;98.20;;;;;;5073833;28;20178;-13
2023/09/23 00:29:34;;;;;;;1.80;1.50;;;19.80;98.10;;;;;;5074257;28;20612;-12
2023/09/23 00:31:59;;;;;;;1.57;1.47;;;19.80;98.10;;;;;;5072804;28;20189;-12
2023/09/23 00:34:26;;;;;;;2.60;1.53;;;19.80;98.00;;;;;;5073118;28;20335;-13
2023/09/23 00:36:52;;;;;;;1.80;1.57;;;19.80;98.20;;;;;;5074388;28;20205;-15
2023/09/23 00:39:18;;;;;;;2.40;1.50;;;19.70;98.10;;;;;;5074488;28;20567;-14
2023/09/23 00:41:44;;;;;;;2.07;1.40;;;19.80;98.20;;;;;;5092337;28;20210;-13
2023/09/23 00:44:10;;;;;;;1.70;1.57;;;19.80;98.30;;;;;;5074751;28;20214;-12
2023/09/23 00:46:37;;;;;;;2.60;1.80;;;19.70;98.20;;;;;;5092847;28;20652;-12
2023/09/23 00:49:09;;;;;;;3.63;1.83;;;19.70;98.20;;;;;;5091224;28;20310;-12
2023/09/23 00:51:37;;;;;;;2.83;1.83;;;19.70;98.30;;;;;;5091291;28;20532;-12
2023/09/23 00:54:10;;;;;;;1.77;1.50;;;19.70;98.20;;;;;;5073459;28;20236;-13
2023/09/23 00:56:36;;;;;;;1.70;1.60;;;19.70;98.20;;;;;;5092376;28;20167;-12
2023/09/23 00:59:09;;;;;;;1.93;1.70;;;19.70;98.20;;;;;;5076062;28;20173;-12
2023/09/23 01:01:34;;;;;;;1.60;1.50;;;19.70;98.20;;;;;;5075576;28;20178;-13
2023/09/23 01:04:00;;;;;;;1.70;1.60;;;19.70;98.40;;;;;;5092956;28;20210;-12
2023/09/23 01:06:28;;;;;;;2.07;1.60;;;19.70;98.40;;;;;;5075598;28;20670;-13
2023/09/23 01:08:57;;;;;;;1.80;1.60;;;19.70;98.40;;;;;;5093648;28;20152;-13
2023/09/23 01:11:23;;;;;;;1.93;1.83;;;19.70;98.50;;;;;;5093291;28;20232;-12
2023/09/23 01:13:52;;;;;;;1.93;1.60;;;19.70;98.50;;;;;;5092650;28;20163;-13
2023/09/23 01:16:18;;;;;;;2.13;1.60;;;19.70;98.40;;;;;;5073786;28;20178;-13
2023/09/23 01:18:49;;;;;;;2.00;1.67;;;19.70;98.40;;;;;;5091316;28;20182;-13
2023/09/23 01:21:15;;;;;;;1.80;1.70;;;19.70;98.50;;;;;;5074031;28;20185;-12
2023/09/23 01:23:43;;;;;;;1.77;1.67;;;19.70;98.40;;;;;;5091668;28;20198;-13
2023/09/23 01:26:11;;;;;;;2.03;1.83;;;19.70;98.40;;;;;;5090904;28;20297;-12
2023/09/23 01:28:37;;;;;;;3.60;1.80;;;19.70;98.50;;;;;;5091240;28;20163;-11
2023/09/23 01:31:04;;;;;;;2.47;1.80;;;19.70;98.40;;;;;;5090662;28;20183;-13
2023/09/23 01:33:31;;;;;;;2.20;2.00;;;19.70;98.50;;;;;;5091615;28;20174;-13
2023/09/23 01:36:03;;;;;;;3.03;1.60;;;19.60;98.20;;;;;;5089964;28;20178;-14
2023/09/23 01:38:32;;;;;;;1.80;1.70;;;19.60;98.50;;;;;;5091096;28;20170;-12
2023/09/23 01:41:01;;;;;;;1.90;1.70;;;19.60;98.50;;;;;;5073645;28;20175;-12
2023/09/23 01:43:27;;;;;;;1.87;1.70;;;19.60;98.60;;;;;;5069886;28;20577;-12
2023/09/23 01:45:58;;;;;;;1.90;1.70;;;19.60;98.50;;;;;;5088539;28;20250;-13
2023/09/23 01:48:24;;;;;;;1.80;1.70;;;19.60;98.40;;;;;;5072008;28;20535;-12
2023/09/23 01:50:50;;;;;;;2.80;2.00;;;19.60;98.30;;;;;;5090742;28;20617;-13
2023/09/23 01:53:19;;;;;;;1.57;1.47;;;19.60;98.50;;;;;;5089662;28;20211;-13
2023/09/23 01:55:45;;;;;;;1.90;1.60;;;19.50;98.40;;;;;;5072361;28;20186;-15
2023/09/23 01:58:11;;;;;;;2.30;1.60;;;19.50;98.50;;;;;;5070911;28;20257;-13
2023/09/23 02:00:38;;;;;;;1.77;1.50;;;19.50;98.40;;;;;;5072367;28;20336;-13
2023/09/23 02:03:04;;;;;;;1.57;1.43;;;19.50;98.50;;;;;;5090338;28;20163;-13
2023/09/23 02:05:29;;;;;;;1.90;1.70;;;19.50;98.50;;;;;;5090472;28;20175;-13
2023/09/23 02:07:56;;;;;;;1.77;1.67;;;19.50;98.60;;;;;;5076741;28;20171;-13
2023/09/23 02:10:24;;;;;;;1.80;1.70;;;19.50;98.70;;;;;;5077929;28;20196;-12
2023/09/23 02:12:50;;;;;;;2.00;1.80;;;19.40;98.40;;;;;;5077712;28;20171;-15
2023/09/23 02:15:16;;;;;;;1.80;1.67;;;19.40;98.60;;;;;;5094171;28;20179;-13
2023/09/23 02:17:47;;;;;;;1.63;1.53;;;19.40;98.60;;;;;;5077225;28;20170;-11
2023/09/23 02:20:18;;;;;;;4.07;1.60;;;19.40;98.60;;;;;;5094726;28;20182;-14
2023/09/23 02:23:03;;;;;;;1.80;1.70;;;19.40;98.50;;;;;;5094454;28;20521;-13
2023/09/23 02:25:29;;;;;;;2.67;1.60;;;19.40;98.60;;;;;;5095295;28;20170;-13
2023/09/23 02:27:57;;;;;;;2.73;1.60;;;19.40;98.50;;;;;;5077212;28;20167;-12
2023/09/23 02:30:23;;;;;;;2.17;1.60;;;19.40;98.50;;;;;;5077412;28;20194;-13
2023/09/23 02:32:49;;;;;;;1.93;1.77;;;19.40;98.70;;;;;;5095473;28;20446;-12
2023/09/23 02:35:16;;;;;;;3.20;1.80;;;19.40;98.60;;;;;;5077839;28;20178;-13
2023/09/23 02:37:46;;;;;;;1.87;1.70;;;19.40;98.60;;;;;;5076853;28;20171;-13
2023/09/23 02:40:14;;;;;;;1.63;1.53;;;19.40;98.50;;;;;;5075123;28;20186;-13
2023/09/23 02:42:45;;;;;;;1.77;1.50;;;19.40;98.60;;;;;;5093623;28;20175;-13
2023/09/23 02:45:13;;;;;;;2.27;1.60;;;19.40;98.50;;;;;;5075717;28;20399;-14
2023/09/23 02:47:41;;;;;;;1.63;1.53;;;19.40;98.60;;;;;;5075123;28;20171;-13
2023/09/23 02:50:13;;;;;;;2.30;1.70;;;19.40;98.50;;;;;;5092247;28;20173;-11
2023/09/23 02:52:39;;;;;;;1.60;1.43;;;19.40;98.50;;;;;;5092231;28;20209;-10
2023/09/23 02:55:12;;;;;;;1.93;1.53;;;19.40;98.50;;;;;;5092700;28;20190;-12
2023/09/23 02:57:48;;;;;;;1.47;1.37;;;19.40;98.60;;;;;;5092513;28;20203;-12
2023/09/23 03:00:29;;;;;;;2.23;1.80;;;19.40;98.50;;;;;;5071749;28;20210;-12
2023/09/23 03:03:01;;;;;;;1.80;1.50;;;19.40;98.50;;;;;;5093804;28;20573;-11
2023/09/23 03:05:31;;;;;;;1.60;1.50;;;19.40;98.60;;;;;;5094657;28;20698;-14
2023/09/23 03:07:59;;;;;;;1.57;1.47;;;19.40;98.60;;;;;;5094531;28;20390;-13
2023/09/23 03:10:32;;;;;;;1.87;1.60;;;19.30;98.50;;;;;;5074226;28;20376;-11
2023/09/23 03:13:07;;;;;;;1.87;1.60;;;19.30;98.70;;;;;;5092990;28;20159;-13
2023/09/23 03:15:52;;;;;;;2.93;1.70;;;19.30;98.60;;;;;;5092667;28;20171;-11
2023/09/23 03:18:28;;;;;;;1.80;1.70;;;19.30;98.70;;;;;;5093614;28;20171;-13
2023/09/23 03:20:57;;;;;;;2.60;1.70;;;19.30;98.70;;;;;;5075643;28;20181;-13
2023/09/23 03:23:24;;;;;;;1.93;1.70;;;19.30;99.00;;;;;;5075060;28;20549;-13
2023/09/23 03:25:51;;;;;;;1.73;1.50;;;19.30;98.70;;;;;;5073707;28;20174;-13
2023/09/23 03:28:17;;;;;;;1.80;1.70;;;19.30;98.70;;;;;;5075237;28;20502;-13
2023/09/23 03:30:47;;;;;;;1.80;1.47;;;19.30;98.70;;;;;;5092596;28;20523;-13
2023/09/23 03:33:14;;;;;;;2.30;1.90;;;19.30;98.70;;;;;;5091631;28;20312;-12
2023/09/23 03:35:40;;;;;;;2.23;1.80;;;19.30;98.80;;;;;;5073261;28;20429;-13
2023/09/23 03:38:05;;;;;;;1.73;1.63;;;19.30;98.60;;;;;;5091055;28;20454;-14
2023/09/23 03:40:31;;;;;;;1.80;1.70;;;19.30;98.60;;;;;;5072936;28;20195;-14
2023/09/23 03:43:01;;;;;;;1.70;1.60;;;19.30;98.80;;;;;;5073274;28;20232;-12
2023/09/23 03:45:27;;;;;;;1.60;1.50;;;19.20;98.70;;;;;;5072923;28;20179;-13
2023/09/23 03:47:53;;;;;;;1.60;1.50;;;19.20;98.70;;;;;;5092543;28;20174;-11
2023/09/23 03:50:19;;;;;;;2.50;1.80;;;19.20;98.70;;;;;;5092973;28;20250;-12
2023/09/23 03:52:45;;;;;;;3.40;1.70;;;19.20;98.60;;;;;;5092946;28;20167;-13
2023/09/23 03:55:14;;;;;;;3.57;1.60;;;19.20;98.90;;;;;;5093949;28;20275;-12
2023/09/23 03:57:40;;;;;;;1.70;1.60;;;19.20;98.80;;;;;;5093145;28;20559;-12
2023/09/23 04:00:14;;;;;;;2.77;1.60;;;19.20;98.80;;;;;;5093911;28;20171;-12
2023/09/23 04:02:40;;;;;;;3.47;1.90;;;19.20;98.80;;;;;;5076661;28;20193;-11
2023/09/23 04:05:06;;;;;;;2.17;1.60;;;19.20;98.70;;;;;;5076357;28;20211;-14
2023/09/23 04:07:32;;;;;;;1.53;1.40;;;19.20;98.90;;;;;;5074383;28;20174;-11
2023/09/23 04:09:59;;;;;;;2.67;1.60;;;19.20;98.80;;;;;;5075181;28;20502;-13
2023/09/23 04:12:24;;;;;;;2.40;1.67;;;19.20;98.80;;;;;;5074995;28;20411;-14
2023/09/23 04:14:50;;;;;;;3.10;1.73;;;19.20;98.80;;;;;;5073410;28;20279;-12
2023/09/23 04:17:16;;;;;;;1.57;1.47;;;19.20;98.80;;;;;;5090471;28;20182;-12
2023/09/23 04:19:43;;;;;;;2.27;1.53;;;19.20;98.80;;;;;;5090846;28;20453;-12
2023/09/23 04:22:11;;;;;;;2.63;1.50;;;19.20;98.70;;;;;;5088117;28;20174;-12
2023/09/23 04:24:36;;;;;;;1.60;1.40;;;19.20;98.70;;;;;;5073025;28;20211;-12
2023/09/23 04:27:02;;;;;;;1.70;1.60;;;19.20;98.80;;;;;;5090600;28;20205;-11
2023/09/23 04:29:30;;;;;;;2.83;1.63;;;19.20;98.90;;;;;;5090821;28;20206;-11
2023/09/23 04:31:56;;;;;;;1.83;1.40;;;19.10;98.80;;;;;;5074450;28;20591;-12
2023/09/23 04:34:24;;;;;;;1.67;1.50;;;19.10;98.90;;;;;;5075414;28;20182;-13
2023/09/23 04:36:50;;;;;;;1.70;1.57;;;19.10;98.80;;;;;;5093583;28;20248;-12
2023/09/23 04:39:16;;;;;;;1.63;1.40;;;19.10;98.70;;;;;;5094211;28;20190;-12
2023/09/23 04:41:42;;;;;;;1.73;1.63;;;19.10;98.80;;;;;;5075636;28;20388;-11
2023/09/23 04:44:08;;;;;;;1.93;1.60;;;19.10;98.80;;;;;;5092029;28;20199;-12
2023/09/23 04:46:34;;;;;;;2.13;1.57;;;19.10;98.70;;;;;;5091219;28;20194;-13
2023/09/23 04:49:00;;;;;;;1.87;1.50;;;19.10;98.90;;;;;;5071031;28;20254;-11
2023/09/23 04:51:26;;;;;;;2.10;1.50;;;19.10;98.80;;;;;;5071340;28;20251;-13
2023/09/23 04:53:52;;;;;;;1.90;1.60;;;19.10;98.80;;;;;;5089553;28;20456;-11
2023/09/23 04:56:18;;;;;;;1.50;1.40;;;19.10;98.90;;;;;;5070956;28;20432;-12
2023/09/23 04:58:44;;;;;;;1.30;1.20;;;19.10;98.90;;;;;;5090641;28;20474;-12
2023/09/23 05:01:14;;;;;;;3.10;1.60;;;19.10;98.90;;;;;;5090187;28;20167;-12
2023/09/23 05:03:42;;;;;;;3.37;1.60;;;19.10;98.90;;;;;;5090780;28;20315;-11
2023/09/23 05:06:10;;;;;;;2.83;1.77;;;19.10;99.10;;;;;;5090130;28;20437;-12
2023/09/23 05:08:36;;;;;;;3.13;1.50;;;19.10;99.10;;;;;;5085337;28;20221;-12
2023/09/23 05:11:03;;;;;;;2.67;1.53;;;19.10;99.00;;;;;;5089364;28;20329;-13
2023/09/23 05:13:29;;;;;;;1.47;1.30;;;19.10;98.90;;;;;;5090137;28;20179;-12
2023/09/23 05:15:55;;;;;;;2.07;1.70;;;19.10;99.00;;;;;;5072347;28;20179;-13
2023/09/23 05:18:23;;;;;;;3.53;1.83;;;19.10;99.00;;;;;;5071720;28;20175;-12
2023/09/23 05:20:49;;;;;;;1.90;1.80;;;19.10;99.10;;;;;;5072698;28;20295;-13
2023/09/23 05:23:15;;;;;;;1.80;1.70;;;19.10;99.00;;;;;;5089823;28;20236;-12
2023/09/23 05:25:41;;;;;;;3.00;1.50;;;19.10;98.90;;;;;;5070447;28;20225;-12
2023/09/23 05:28:07;;;;;;;2.33;1.33;;;19.10;98.90;;;;;;5071750;28;20197;-27
2023/09/23 05:30:32;;;;;;;2.30;1.30;;;19.10;98.90;;;;;;5072422;28;20480;-12
2023/09/23 05:32:58;;;;;;;1.90;1.53;;;19.10;98.90;;;;;;5089602;28;20179;-10
2023/09/23 05:35:24;;;;;;;2.00;1.73;;;19.10;98.90;;;;;;5090112;28;20186;-12
2023/09/23 05:37:51;;;;;;;2.20;1.37;;;19.10;98.90;;;;;;5091318;28;20258;-11
2023/09/23 05:42:47;;;;;;;2.33;1.50;;;19.10;98.80;;;;;;5096304;28;20228;-12
2023/09/23 05:45:14;;;;;;;3.13;1.80;;;19.00;98.80;;;;;;5078991;28;20656;-12
2023/09/23 05:47:45;;;;;;;1.57;1.43;;;19.00;98.90;;;;;;5095194;28;20198;-12
2023/09/23 05:50:10;;;;;;;2.83;1.70;;;19.00;98.90;;;;;;5094239;28;20570;-12
2023/09/23 05:52:36;;;;;;;2.97;1.80;;;19.00;98.90;;;;;;5093703;28;20167;-12
2023/09/23 05:55:04;;;;;;;1.90;1.40;;;19.10;98.90;;;;;;5077019;28;20217;-11
2023/09/23 05:57:30;;;;;;;2.40;1.40;;;19.10;98.80;;;;;;5094856;28;20175;-14
2023/09/23 05:59:56;;;;;;;1.70;1.40;;;19.10;98.80;;;;;;5093897;28;20163;-12
2023/09/23 06:02:22;;;;;;;2.63;1.60;;;19.10;99.00;;;;;;5095430;28;20224;-13
2023/09/23 06:04:48;;;;;;;3.37;1.60;;;19.00;98.80;;;;;;5078090;28;20214;-12
2023/09/23 06:07:14;;;;;;;2.20;1.70;;;19.00;98.80;;;;;;5076880;28;20298;-13
2023/09/23 06:09:43;;;;;;;2.00;1.40;;;19.00;98.60;;;;;;5075991;28;20231;-12
2023/09/23 06:12:09;;;;;;;2.03;1.50;;;19.00;98.80;;;;;;5074872;28;20177;-11
2023/09/23 06:14:35;;;;;;;1.63;1.40;;;19.10;98.80;;;;;;5093078;28;20171;-12
2023/09/23 06:17:01;;;;;;;2.00;1.60;;;19.10;98.80;;;;;;5075521;28;20170;-13
2023/09/23 06:19:27;;;;;;;2.50;1.50;;;19.10;98.70;;;;;;5074522;28;20436;-12
2023/09/23 06:21:54;;;;;;;2.90;1.60;;;19.10;98.80;;;;;;5074714;28;20583;-11
2023/09/23 06:24:20;;;;;;;1.70;1.43;;;19.10;98.80;;;;;;5093629;28;20198;-12
2023/09/23 06:26:46;;;;;;;2.87;1.40;;;19.10;98.70;;;;;;5092222;28;20171;-13
2023/09/23 06:29:14;;;;;;;1.83;1.50;;;19.10;98.80;;;;;;5073921;28;20174;-12
2023/09/23 06:31:41;;;;;;;3.20;1.70;;;19.10;98.80;;;;;;5092552;28;20467;-12
2023/09/23 06:34:07;;;;;;;2.53;1.70;;;19.00;98.70;;;;;;5076232;28;20597;-11
2023/09/23 06:36:33;;;;;;;1.87;1.50;;;19.00;98.80;;;;;;5075525;28;20167;-12
2023/09/23 06:38:59;;;;;;;1.93;1.60;;;19.00;98.90;;;;;;5075087;28;20171;-12
2023/09/23 06:41:25;;;;;;;3.50;1.70;;;19.10;98.90;;;;;;5093280;28;20167;-11
2023/09/23 06:43:52;;;;;;;3.67;1.80;;;19.10;99.10;;;;;;5091902;28;20198;-13
2023/09/23 06:46:18;;;;;;;4.43;1.87;;;19.10;99.20;;;;;;5091251;28;20171;-12
2023/09/23 06:48:43;;;;;;;3.30;1.70;;;19.10;99.40;;;;;;5089913;28;20166;-12
2023/09/23 06:51:10;;;;;;;2.93;2.00;;;19.10;99.50;;;;;;5070051;28;20432;-13
2023/09/23 06:53:36;;;;;;;2.40;1.60;;;19.10;99.50;;;;;;5091642;28;20586;-12
2023/09/23 06:56:02;;;;;;;3.77;1.77;;;19.10;99.60;;;;;;5082998;28;20579;-13
2023/09/23 06:58:28;;;;;;;4.97;1.80;;;19.20;99.70;;;;;;5060617;28;20266;-14
2023/09/23 07:00:55;;;;;;;3.53;1.70;;;19.20;99.80;;;;;;5061471;28;20575;-13
2023/09/23 07:03:21;;;;;;;4.87;1.80;;;19.20;99.90;;;;;;5074557;28;20263;-13
2023/09/23 07:05:47;;;;;;;4.20;1.90;;;19.20;99.90;;;;;;5069182;28;20348;-14
2023/09/23 07:08:13;;;;;;;3.10;1.90;;;19.20;99.90;;;;;;5054455;28;20167;-12
2023/09/23 07:10:41;;;;;;;8.57;1.90;;;19.20;99.90;;;;;;5071600;28;20191;-12
2023/09/23 07:13:08;;;;;;;5.70;1.93;;;19.20;99.80;;;;;;5053127;28;20164;-12
2023/09/23 07:15:38;;;;;;;5.67;1.90;;;19.30;99.90;;;;;;5071309;28;20473;-13
2023/09/23 07:18:04;;;;;;;6.70;1.80;;;19.30;99.90;;;;;;5080752;28;20223;-12
2023/09/23 07:20:31;;;;;;;5.77;1.90;;;19.30;99.80;;;;;;5081095;28;20175;-12
2023/09/23 07:22:57;;;;;;;5.77;1.70;;;19.30;99.80;;;;;;5097763;28;20159;-13
2023/09/23 07:25:24;;;;;;;5.03;1.80;;;19.30;99.70;;;;;;5099015;28;20301;-15
2023/09/23 07:27:49;;;;;;;5.63;1.77;;;19.30;99.60;;;;;;5097047;28;20155;-13
2023/09/23 07:30:17;;;;;;;6.13;2.00;;;19.30;99.50;;;;;;5090393;28;20342;-13
2023/09/23 07:32:43;;;;;;;9.20;2.00;;;19.30;99.50;;;;;;5089972;28;20681;-13
2023/09/23 07:35:09;;;;;;;8.00;1.80;;;19.30;99.50;;;;;;5090796;28;20563;-12
2023/09/23 07:37:35;;;;;;;1.60;1.33;;;19.30;99.50;;;;;;5074060;28;20257;-13
2023/09/23 07:40:01;;;;;;;3.80;1.70;;;19.30;99.50;;;;;;5092419;28;20255;-13
2023/09/23 07:42:27;;;;;;;4.03;1.60;;;19.30;99.40;;;;;;5073804;28;20167;-13
2023/09/23 07:44:53;;;;;;;3.73;1.43;;;19.40;99.40;;;;;;5090937;28;20225;-13
2023/09/23 07:47:19;;;;;;;2.93;1.40;;;19.40;99.40;;;;;;5089593;28;20216;-12
2023/09/23 07:49:44;;;;;;;4.13;1.57;;;19.40;99.30;;;;;;5073266;28;20167;-13
2023/09/23 07:52:10;;;;;;;2.50;1.60;;;19.40;99.20;;;;;;5071767;28;20166;-13
2023/09/23 07:54:38;;;;;;;4.77;1.60;;;19.40;99.20;;;;;;5090226;28;20171;-12
2023/09/23 07:57:04;;;;;;;2.60;1.50;;;19.40;99.10;;;;;;5088692;28;20190;-13
2023/09/23 07:59:30;;;;;;;4.33;1.70;;;19.40;99.10;;;;;;5089698;28;20167;-13
2023/09/23 08:01:56;;;;;;;2.27;1.40;;;19.40;99.10;;;;;;5075721;28;20538;-13
2023/09/23 08:04:21;;;;;;;5.80;2.10;;;19.40;99.20;;;;;;5078913;28;20595;-13
2023/09/23 08:06:47;;;;;;;5.63;1.83;;;19.50;99.10;;;;;;5097078;28;20170;-15
2023/09/23 08:09:15;;;;;;;2.67;1.50;;;19.50;99.00;;;;;;5079252;28;20194;-12
2023/09/23 08:11:41;;;;;;;3.80;1.67;;;19.50;98.80;;;;;;5096147;28;20178;-14
2023/09/23 08:14:07;;;;;;;3.03;1.53;;;19.50;98.60;;;;;;5078342;28;20282;-12
2023/09/23 08:16:32;;;;;;;4.07;1.60;;;19.50;98.50;;;;;;5097560;28;20508;-13
2023/09/23 08:18:58;;;;;;;3.27;1.60;;;19.60;98.30;;;;;;5097384;28;20163;-15
2023/09/23 08:21:30;;;;;;;4.80;1.60;;;19.60;98.20;;;;;;5097689;28;20263;-12
2023/09/23 08:23:57;;;;;;;3.23;1.60;;;19.60;98.00;;;;;;5097138;28;20190;-12
2023/09/23 08:26:23;;;;;;;3.53;1.47;;;19.60;98.10;;;;;;5096672;28;20215;-13
2023/09/23 08:28:48;;;;;;;3.03;1.40;;;19.60;98.10;;;;;;5096803;28;20250;-13
2023/09/23 08:31:14;;;;;;;3.13;1.37;;;19.60;98.10;;;;;;5096428;28;20320;-13
2023/09/23 08:33:40;;;;;;;3.40;1.50;;;19.80;97.80;;;;;;5096223;28;20636;-13
2023/09/23 08:36:06;;;;;;;2.87;1.60;;;19.90;97.40;;;;;;5096649;28;20175;-14
2023/09/23 08:38:37;;;;;;;3.20;1.63;;;20.00;97.00;;;;;;5095943;28;20151;-13
2023/09/23 08:41:06;;;;;;;4.90;1.40;;;20.20;96.40;;;;;;5096129;28;20169;-13
2023/09/23 08:43:38;;;;;;;15.17;2.50;;;20.30;96.20;;;;;;5078924;28;20297;-13
2023/09/23 08:46:09;;;;;;;14.20;2.30;;;20.50;95.90;;;;;;5096447;28;20567;-14
2023/09/23 08:48:35;;;;;;;12.87;1.87;;;20.60;95.90;;;;;;5096519;28;20174;-12
2023/09/23 08:51:03;;;;;;;6.17;1.93;;;20.50;95.70;;;;;;5096481;28;20167;-12
2023/09/23 08:53:33;;;;;;;12.33;2.77;;;20.50;95.80;;;;;;5076994;28;20201;-12
2023/09/23 08:56:02;;;;;;;6.37;2.00;;;20.50;95.80;;;;;;5096612;28;20161;-14
2023/09/23 08:58:42;;;;;;;16.90;2.77;;;20.50;95.70;;;;;;5095990;28;20147;-14
2023/09/23 09:01:08;;;;;;;4.93;2.00;;;20.50;95.50;;;;;;5075580;22;20297;-15
2023/09/23 09:03:35;;;;;;;8.67;2.20;;;20.60;95.40;;;;;;5068839;28;20233;-14
2023/09/23 09:06:01;;;;;;;6.20;2.00;;;20.50;95.50;;;;;;5049765;28;20182;-14
2023/09/23 09:08:27;;;;;;;6.27;2.63;;;20.60;95.20;;;;;;5066458;28;20175;-13
2023/09/23 09:10:56;;;;;;;9.47;2.13;;;20.60;95.30;;;;;;5065665;28;20174;-12
2023/09/23 09:13:22;;;;;;;5.23;2.00;;;20.50;95.30;;;;;;5067364;28;20175;-12
2023/09/23 09:15:50;;;;;;;5.63;1.70;;;20.60;95.30;;;;;;5066353;28;20270;-13
2023/09/23 09:18:17;;;;;;;4.70;2.00;;;20.60;95.20;;;;;;5066653;28;20171;-13
2023/09/23 09:20:42;;;;;;;7.50;1.80;;;20.60;95.20;;;;;;5066658;28;20293;-12
2023/09/23 09:23:15;;;;;;;3.63;1.83;;;20.60;95.10;;;;;;5048120;28;20183;-12
2023/09/23 09:25:47;;;;;;;3.73;1.60;;;20.60;95.00;;;;;;5065267;28;20513;-12
2023/09/23 09:28:16;;;;;;;4.57;1.57;;;20.60;95.00;;;;;;5067548;28;20523;-12
2023/09/23 09:30:44;;;;;;;3.17;1.50;;;20.60;94.90;;;;;;5065860;28;20176;-13
2023/09/23 09:33:12;;;;;;;5.43;1.60;;;20.60;94.90;;;;;;5065936;28;20167;-12
2023/09/23 09:35:39;;;;;;;2.23;1.40;;;20.50;94.90;;;;;;5067278;28;20259;-12
2023/09/23 09:38:07;;;;;;;3.77;1.50;;;20.50;95.20;;;;;;5068805;28;20270;-13
2023/09/23 09:40:32;;;;;;;3.57;1.60;;;20.50;95.10;;;;;;5066486;28;20472;-12
2023/09/23 09:43:00;;;;;;;2.67;1.70;;;20.60;95.00;;;;;;5067420;28;20183;-13
2023/09/23 09:45:27;;;;;;;2.43;1.50;;;20.60;94.80;;;;;;5068402;28;20206;-13
2023/09/23 09:48:00;;;;;;;3.97;1.70;;;20.60;94.80;;;;;;5048945;28;20400;-11
2023/09/23 09:50:26;;;;;;;4.13;1.60;;;20.60;94.80;;;;;;5066570;28;20584;-12
2023/09/23 09:52:52;;;;;;;3.50;1.60;;;20.50;94.90;;;;;;5049286;28;20347;-12
2023/09/23 09:55:20;;;;;;;3.50;1.40;;;20.50;94.80;;;;;;5065717;28;20202;-11
2023/09/23 09:57:52;;;;;;;2.80;1.43;;;20.60;94.80;;;;;;5046698;28;20180;-13
2023/09/23 10:00:35;;;;;;;2.53;1.30;;;20.70;94.50;;;;;;5063821;28;20176;-13
2023/09/23 10:03:08;;;;;;;2.97;1.47;;;20.70;94.20;;;;;;5036397;28;20576;-14
2023/09/23 10:05:47;;;;;;;2.83;1.30;;;20.70;94.10;;;;;;5054612;28;20204;-13
2023/09/23 10:08:48;;;;;;;2.03;1.50;;;20.80;93.90;;;;;;5054575;28;20483;-12
2023/09/23 10:11:09;;;;;;;2.47;1.20;;;20.90;93.70;;;;;;5053032;28;20296;-12
2023/09/23 10:13:35;;;;;;;2.20;1.40;;;21.00;93.40;;;;;;5037929;28;20185;-14
2023/09/23 10:16:05;;;;;;;2.77;1.40;;;21.00;93.10;;;;;;5038554;28;20180;-13
2023/09/23 10:18:40;;;;;;;2.80;1.30;;;21.00;93.00;;;;;;5054479;28;20249;-12
2023/09/23 10:21:07;;;;;;;1.70;1.13;;;21.00;92.80;;;;;;5037125;28;20184;-12
2023/09/23 10:23:40;;;;;;;3.13;1.30;;;21.00;92.80;;;;;;5060839;28;20178;-12
2023/09/23 10:26:16;;;;;;;2.20;1.23;;;21.00;92.90;;;;;;5048770;28;20176;-12
2023/09/23 10:28:43;;;;;;;1.30;1.20;;;20.90;93.10;;;;;;5053353;28;20237;-12
2023/09/23 10:31:10;;;;;;;2.57;1.30;;;20.80;93.30;;;;;;5051774;28;20171;-12
2023/09/23 10:33:37;;;;;;;1.97;1.23;;;20.70;93.60;;;;;;5054380;28;20167;-13
2023/09/23 10:36:04;;;;;;;4.40;1.37;;;20.80;93.50;;;;;;5071914;28;20283;-11
2023/09/23 10:38:35;;;;;;;1.80;1.10;;;20.80;93.20;;;;;;5046900;28;20177;-12
2023/09/23 10:41:04;;;;;;;1.77;1.10;;;20.80;93.10;;;;;;5057887;28;20173;-13
2023/09/23 10:43:31;;;;;;;2.10;1.30;;;20.70;93.30;;;;;;5057904;28;20177;-12
2023/09/23 10:45:59;;;;;;;3.43;1.30;;;20.70;93.30;;;;;;5063302;28;20171;-13
2023/09/23 10:48:28;;;;;;;2.63;1.23;;;20.70;93.40;;;;;;5077703;28;20635;-14
2023/09/23 10:50:54;;;;;;;2.20;1.13;;;20.70;93.60;;;;;;5078076;28;20756;-14
2023/09/23 10:53:27;;;;;;;1.27;0.97;;;20.70;93.50;;;;;;5074971;28;20183;-13
2023/09/23 10:55:55;;;;;;;1.77;1.20;;;20.60;93.60;;;;;;5067366;28;20167;-13
2023/09/23 10:58:21;;;;;;;1.97;0.93;;;20.70;93.70;;;;;;5058875;28;20431;-13
2023/09/23 11:00:48;;;;;;;1.23;1.10;;;20.70;93.70;;;;;;5048303;28;20236;-13
2023/09/23 11:03:19;;;;;;;1.67;1.00;;;20.70;93.50;;;;;;5028811;28;20565;-15
2023/09/23 11:05:46;;;;;;;2.13;1.40;;;20.70;93.70;;;;;;5047960;28;20595;-12
2023/09/23 11:08:14;;;;;;;2.37;1.10;;;20.70;93.70;;;;;;5030740;28;20173;-13
2023/09/23 11:10:46;;;;;;;2.43;1.20;;;20.70;93.70;;;;;;5049858;28;20199;-13
2023/09/23 11:13:13;;;;;;;2.20;1.10;;;20.70;93.60;;;;;;5049729;28;20663;-15
2023/09/23 11:15:41;;;;;;;2.40;1.27;;;20.70;93.60;;;;;;5031848;28;20237;-12
2023/09/23 11:18:07;;;;;;;1.10;0.87;;;20.70;93.60;;;;;;5033579;28;20168;-12
2023/09/23 11:20:35;;;;;;;2.73;1.23;;;20.70;93.50;;;;;;5048910;28;20222;-14
2023/09/23 11:23:05;;;;;;;1.53;1.20;;;20.70;93.50;;;;;;5048143;28;20507;-11
2023/09/23 11:25:42;;;;;;;2.97;1.20;;;20.70;93.50;;;;;;5028623;28;20204;-14
2023/09/23 11:28:26;;;;;;;4.13;1.20;;;20.70;93.50;;;;;;5044820;28;20597;-13
2023/09/23 11:30:54;;;;;;;1.80;0.90;;;20.70;93.50;;;;;;5046084;28;20628;-13
2023/09/23 11:33:24;;;;;;;1.13;0.93;;;20.70;93.60;;;;;;5046598;28;20328;-13
2023/09/23 11:35:51;;;;;;;1.83;1.03;;;20.70;93.50;;;;;;5027768;28;20282;-13
2023/09/23 11:38:18;;;;;;;2.57;1.10;;;20.70;93.40;;;;;;5028660;28;20186;-12
2023/09/23 11:40:46;;;;;;;2.03;1.10;;;20.70;93.40;;;;;;5045644;28;20172;-13
2023/09/23 11:43:12;;;;;;;1.57;1.00;;;20.70;93.50;;;;;;5029876;28;20369;-13
2023/09/23 11:45:41;;;;;;;1.63;1.10;;;20.70;93.30;;;;;;5046741;28;20213;-13
2023/09/23 11:48:08;;;;;;;2.67;1.30;;;20.70;93.40;;;;;;5048072;28;20173;-13
2023/09/23 11:50:35;;;;;;;2.93;1.10;;;20.70;93.30;;;;;;5047074;28;20226;-13
2023/09/23 11:53:01;;;;;;;2.53;1.13;;;20.70;93.30;;;;;;5030631;28;20172;-15
2023/09/23 11:55:27;;;;;;;3.17;1.10;;;20.70;93.30;;;;;;5030443;28;20334;-12
2023/09/23 11:57:54;;;;;;;4.20;1.00;;;20.70;93.20;;;;;;5031018;28;20168;-12
2023/09/23 12:00:20;;;;;;;1.20;1.00;;;20.70;93.20;;;;;;5046581;28;20175;-13
2023/09/23 12:02:49;;;;;;;4.63;1.27;;;20.80;93.30;;;;;;5030056;28;20195;-12
2023/09/23 12:05:16;;;;;;;2.23;1.20;;;20.80;93.30;;;;;;5046941;28;20462;-13
2023/09/23 12:07:43;;;;;;;2.60;1.30;;;20.80;93.30;;;;;;5047856;28;20604;-13
2023/09/23 12:10:16;;;;;;;2.67;1.10;;;20.80;93.30;;;;;;5046724;28;20213;-13
2023/09/23 12:12:45;;;;;;;1.27;1.07;;;20.80;93.20;;;;;;5045672;28;20392;-13
2023/09/23 12:15:11;;;;;;;3.00;1.37;;;20.80;93.20;;;;;;5029333;28;20179;-13
2023/09/23 12:17:37;;;;;;;1.40;0.93;;;20.80;93.20;;;;;;5045104;28;20168;-13
2023/09/23 12:20:04;;;;;;;2.03;1.10;;;20.80;93.20;;;;;;5046145;28;20234;-13
2023/09/23 12:22:30;;;;;;;2.67;1.23;;;20.80;93.30;;;;;;5044849;28;20215;-12
2023/09/23 12:24:56;;;;;;;1.33;1.10;;;20.80;93.20;;;;;;5046998;28;20337;-13
2023/09/23 12:27:22;;;;;;;3.13;1.30;;;20.80;93.20;;;;;;5047281;28;20164;-13
2023/09/23 12:29:48;;;;;;;1.83;1.20;;;20.80;93.20;;;;;;5045163;28;20176;-13
2023/09/23 12:32:14;;;;;;;3.00;1.10;;;20.80;93.10;;;;;;5058123;28;20172;-13
2023/09/23 12:34:40;;;;;;;1.37;1.00;;;20.80;93.00;;;;;;5065277;28;20216;-13
2023/09/23 12:37:05;;;;;;;1.73;1.10;;;20.80;92.90;;;;;;5056782;28;20191;-13
2023/09/23 12:39:32;;;;;;;1.77;1.13;;;20.80;92.80;;;;;;5056011;28;20180;-13
2023/09/23 12:42:04;;;;;;;2.10;1.33;;;20.80;92.90;;;;;;5062080;28;20174;-13
2023/09/23 12:44:30;;;;;;;2.17;1.07;;;20.80;92.90;;;;;;5071820;28;20372;-13
2023/09/23 12:46:55;;;;;;;2.17;1.20;;;20.80;92.90;;;;;;5072850;28;20180;-14
2023/09/23 12:49:21;;;;;;;3.27;1.30;;;20.80;92.90;;;;;;5058426;28;20541;-13